sensor_id;sensor_type;location;lat;lon;timestamp;P1;durP1;ratioP1;P2;durP2;ratioP2
68509;SDS011;55512;50.102;19.958;2022-11-20T00:01:19;49.20;;;20.70;;
68509;SDS011;55512;50.102;19.958;2022-11-20T00:03:51;50.60;;;23.10;;
68509;SDS011;55512;50.102;19.958;2022-11-20T00:06:19;49.60;;;22.50;;
68509;SDS011;55512;50.102;19.958;2022-11-20T00:08:46;46.20;;;22.70;;
68509;SDS011;55512;50.102;19.958;2022-11-20T00:11:18;52.50;;;22.10;;
68509;SDS011;55512;50.102;19.958;2022-11-20T00:13:49;49.20;;;21.90;;
68509;SDS011;55512;50.102;19.958;2022-11-20T00:16:19;44.40;;;21.20;;
68509;SDS011;55512;50.102;19.958;2022-11-20T00:18:47;42.30;;;19.60;;
68509;SDS011;55512;50.102;19.958;2022-11-20T00:21:17;42.60;;;19.50;;
68509;SDS011;55512;50.102;19.958;2022-11-20T00:23:45;41.40;;;18.30;;
68509;SDS011;55512;50.102;19.958;2022-11-20T00:26:16;46.40;;;21.20;;
68509;SDS011;55512;50.102;19.958;2022-11-20T00:28:44;40.20;;;17.20;;
68509;SDS011;55512;50.102;19.958;2022-11-20T00:31:14;47.30;;;19.90;;
68509;SDS011;55512;50.102;19.958;2022-11-20T00:33:41;45.80;;;19.60;;
68509;SDS011;55512;50.102;19.958;2022-11-20T00:36:16;46.70;;;19.80;;
68509;SDS011;55512;50.102;19.958;2022-11-20T00:38:44;49.90;;;20.10;;
68509;SDS011;55512;50.102;19.958;2022-11-20T00:41:12;45.80;;;17.40;;
68509;SDS011;55512;50.102;19.958;2022-11-20T00:43:40;41.90;;;16.80;;
68509;SDS011;55512;50.102;19.958;2022-11-20T00:46:14;43.20;;;17.10;;
68509;SDS011;55512;50.102;19.958;2022-11-20T00:48:42;42.90;;;17.30;;
68509;SDS011;55512;50.102;19.958;2022-11-20T00:51:09;46.00;;;18.90;;
68509;SDS011;55512;50.102;19.958;2022-11-20T00:53:37;42.80;;;20.80;;
68509;SDS011;55512;50.102;19.958;2022-11-20T00:56:05;46.90;;;20.90;;
68509;SDS011;55512;50.102;19.958;2022-11-20T00:58:37;43.30;;;20.70;;
68509;SDS011;55512;50.102;19.958;2022-11-20T01:03:41;36.30;;;17.70;;
68509;SDS011;55512;50.102;19.958;2022-11-20T01:06:19;44.80;;;19.30;;
68509;SDS011;55512;50.102;19.958;2022-11-20T01:08:48;39.20;;;17.10;;
68509;SDS011;55512;50.102;19.958;2022-11-20T01:11:16;36.50;;;17.00;;
68509;SDS011;55512;50.102;19.958;2022-11-20T01:13:45;39.60;;;16.80;;
68509;SDS011;55512;50.102;19.958;2022-11-20T01:16:17;40.50;;;16.00;;
68509;SDS011;55512;50.102;19.958;2022-11-20T01:18:46;37.60;;;16.40;;
68509;SDS011;55512;50.102;19.958;2022-11-20T01:21:20;35.70;;;16.70;;
68509;SDS011;55512;50.102;19.958;2022-11-20T01:23:48;42.10;;;17.30;;
68509;SDS011;55512;50.102;19.958;2022-11-20T01:26:19;47.70;;;19.40;;
68509;SDS011;55512;50.102;19.958;2022-11-20T01:28:47;49.60;;;19.70;;
68509;SDS011;55512;50.102;19.958;2022-11-20T01:31:16;42.40;;;18.10;;
68509;SDS011;55512;50.102;19.958;2022-11-20T01:33:48;44.90;;;17.60;;
68509;SDS011;55512;50.102;19.958;2022-11-20T01:36:17;43.70;;;19.20;;
68509;SDS011;55512;50.102;19.958;2022-11-20T01:38:44;47.20;;;21.00;;
68509;SDS011;55512;50.102;19.958;2022-11-20T01:41:11;46.70;;;20.60;;
68509;SDS011;55512;50.102;19.958;2022-11-20T01:44:01;44.80;;;19.60;;
68509;SDS011;55512;50.102;19.958;2022-11-20T01:46:33;50.30;;;20.40;;
68509;SDS011;55512;50.102;19.958;2022-11-20T01:49:19;49.80;;;20.90;;
68509;SDS011;55512;50.102;19.958;2022-11-20T01:52:01;48.90;;;18.30;;
68509;SDS011;55512;50.102;19.958;2022-11-20T01:54:36;38.80;;;17.00;;
68509;SDS011;55512;50.102;19.958;2022-11-20T01:57:08;42.90;;;17.80;;
68509;SDS011;55512;50.102;19.958;2022-11-20T01:59:44;42.20;;;17.20;;
68509;SDS011;55512;50.102;19.958;2022-11-20T02:02:13;39.30;;;18.00;;
68509;SDS011;55512;50.102;19.958;2022-11-20T02:04:39;40.10;;;18.70;;
68509;SDS011;55512;50.102;19.958;2022-11-20T02:07:05;39.80;;;17.30;;
68509;SDS011;55512;50.102;19.958;2022-11-20T02:09:30;49.90;;;19.50;;
68509;SDS011;55512;50.102;19.958;2022-11-20T02:11:57;39.30;;;15.70;;
68509;SDS011;55512;50.102;19.958;2022-11-20T02:14:24;46.00;;;19.30;;
68509;SDS011;55512;50.102;19.958;2022-11-20T02:16:51;49.50;;;19.10;;
68509;SDS011;55512;50.102;19.958;2022-11-20T02:19:29;51.40;;;20.00;;
68509;SDS011;55512;50.102;19.958;2022-11-20T02:22:17;37.40;;;16.80;;
68509;SDS011;55512;50.102;19.958;2022-11-20T02:24:47;37.20;;;18.80;;
68509;SDS011;55512;50.102;19.958;2022-11-20T02:27:16;50.60;;;20.60;;
68509;SDS011;55512;50.102;19.958;2022-11-20T02:32:32;40.90;;;17.70;;
68509;SDS011;55512;50.102;19.958;2022-11-20T02:35:54;36.20;;;13.90;;
68509;SDS011;55512;50.102;19.958;2022-11-20T02:37:58;46.90;;;19.20;;
68509;SDS011;55512;50.102;19.958;2022-11-20T02:40:26;42.00;;;18.20;;
68509;SDS011;55512;50.102;19.958;2022-11-20T02:42:53;45.80;;;19.60;;
68509;SDS011;55512;50.102;19.958;2022-11-20T02:45:19;48.30;;;18.20;;
68509;SDS011;55512;50.102;19.958;2022-11-20T02:47:44;43.50;;;18.10;;
68509;SDS011;55512;50.102;19.958;2022-11-20T02:50:10;45.40;;;17.70;;
68509;SDS011;55512;50.102;19.958;2022-11-20T02:52:38;36.10;;;14.90;;
68509;SDS011;55512;50.102;19.958;2022-11-20T02:55:04;39.30;;;16.40;;
68509;SDS011;55512;50.102;19.958;2022-11-20T02:57:30;39.80;;;15.30;;
68509;SDS011;55512;50.102;19.958;2022-11-20T02:59:55;50.30;;;20.40;;
68509;SDS011;55512;50.102;19.958;2022-11-20T03:02:21;48.60;;;20.60;;
68509;SDS011;55512;50.102;19.958;2022-11-20T03:04:46;54.10;;;20.90;;
68509;SDS011;55512;50.102;19.958;2022-11-20T03:07:12;49.20;;;19.10;;
68509;SDS011;55512;50.102;19.958;2022-11-20T03:09:37;35.10;;;15.30;;
68509;SDS011;55512;50.102;19.958;2022-11-20T03:12:03;34.10;;;16.20;;
68509;SDS011;55512;50.102;19.958;2022-11-20T03:14:29;45.20;;;21.20;;
68509;SDS011;55512;50.102;19.958;2022-11-20T03:16:55;49.80;;;22.50;;
68509;SDS011;55512;50.102;19.958;2022-11-20T03:19:21;45.30;;;19.70;;
68509;SDS011;55512;50.102;19.958;2022-11-20T03:21:46;45.90;;;20.30;;
68509;SDS011;55512;50.102;19.958;2022-11-20T03:24:12;42.00;;;18.70;;
68509;SDS011;55512;50.102;19.958;2022-11-20T03:26:38;40.60;;;16.80;;
68509;SDS011;55512;50.102;19.958;2022-11-20T03:29:05;41.60;;;17.40;;
68509;SDS011;55512;50.102;19.958;2022-11-20T03:31:33;45.80;;;18.50;;
68509;SDS011;55512;50.102;19.958;2022-11-20T03:34:00;39.40;;;17.10;;
68509;SDS011;55512;50.102;19.958;2022-11-20T03:36:27;40.40;;;15.40;;
68509;SDS011;55512;50.102;19.958;2022-11-20T03:38:55;41.00;;;17.00;;
68509;SDS011;55512;50.102;19.958;2022-11-20T03:41:41;37.90;;;16.80;;
68509;SDS011;55512;50.102;19.958;2022-11-20T03:44:09;40.20;;;15.30;;
68509;SDS011;55512;50.102;19.958;2022-11-20T03:46:36;46.40;;;17.90;;
68509;SDS011;55512;50.102;19.958;2022-11-20T03:49:02;54.10;;;21.50;;
68509;SDS011;55512;50.102;19.958;2022-11-20T03:51:33;54.30;;;22.70;;
68509;SDS011;55512;50.102;19.958;2022-11-20T03:54:06;56.40;;;21.90;;
68509;SDS011;55512;50.102;19.958;2022-11-20T03:56:35;48.80;;;20.00;;
68509;SDS011;55512;50.102;19.958;2022-11-20T03:59:02;37.30;;;14.60;;
68509;SDS011;55512;50.102;19.958;2022-11-20T04:01:31;35.10;;;15.10;;
68509;SDS011;55512;50.102;19.958;2022-11-20T04:03:58;32.20;;;13.60;;
68509;SDS011;55512;50.102;19.958;2022-11-20T04:06:27;48.90;;;22.10;;
68509;SDS011;55512;50.102;19.958;2022-11-20T04:08:55;51.80;;;22.50;;
68509;SDS011;55512;50.102;19.958;2022-11-20T04:11:24;51.30;;;22.00;;
68509;SDS011;55512;50.102;19.958;2022-11-20T04:13:53;38.50;;;18.50;;
68509;SDS011;55512;50.102;19.958;2022-11-20T04:16:22;37.50;;;14.80;;
68509;SDS011;55512;50.102;19.958;2022-11-20T04:18:56;39.70;;;15.80;;
68509;SDS011;55512;50.102;19.958;2022-11-20T04:21:24;52.90;;;19.70;;
68509;SDS011;55512;50.102;19.958;2022-11-20T04:23:51;48.50;;;20.10;;
68509;SDS011;55512;50.102;19.958;2022-11-20T04:26:18;55.20;;;21.50;;
68509;SDS011;55512;50.102;19.958;2022-11-20T04:28:45;48.80;;;21.90;;
68509;SDS011;55512;50.102;19.958;2022-11-20T04:31:13;49.50;;;19.40;;
68509;SDS011;55512;50.102;19.958;2022-11-20T04:33:42;39.30;;;16.10;;
68509;SDS011;55512;50.102;19.958;2022-11-20T04:36:17;46.10;;;20.50;;
68509;SDS011;55512;50.102;19.958;2022-11-20T04:38:45;49.30;;;21.20;;
68509;SDS011;55512;50.102;19.958;2022-11-20T04:41:15;45.30;;;20.50;;
68509;SDS011;55512;50.102;19.958;2022-11-20T04:43:46;47.90;;;21.50;;
68509;SDS011;55512;50.102;19.958;2022-11-20T04:46:14;46.20;;;20.70;;
68509;SDS011;55512;50.102;19.958;2022-11-20T04:48:40;42.70;;;20.20;;
68509;SDS011;55512;50.102;19.958;2022-11-20T04:51:05;46.70;;;19.90;;
68509;SDS011;55512;50.102;19.958;2022-11-20T04:53:31;41.50;;;18.10;;
68509;SDS011;55512;50.102;19.958;2022-11-20T04:56:01;38.10;;;17.10;;
68509;SDS011;55512;50.102;19.958;2022-11-20T04:58:28;38.70;;;17.20;;
68509;SDS011;55512;50.102;19.958;2022-11-20T05:01:06;46.00;;;17.90;;
68509;SDS011;55512;50.102;19.958;2022-11-20T05:03:35;38.90;;;16.30;;
68509;SDS011;55512;50.102;19.958;2022-11-20T05:06:02;40.60;;;15.30;;
68509;SDS011;55512;50.102;19.958;2022-11-20T05:08:29;40.30;;;16.50;;
68509;SDS011;55512;50.102;19.958;2022-11-20T05:11:10;32.20;;;15.60;;
68509;SDS011;55512;50.102;19.958;2022-11-20T05:13:39;41.30;;;17.80;;
68509;SDS011;55512;50.102;19.958;2022-11-20T05:16:07;58.10;;;22.50;;
68509;SDS011;55512;50.102;19.958;2022-11-20T05:18:35;48.00;;;21.40;;
68509;SDS011;55512;50.102;19.958;2022-11-20T05:21:01;45.20;;;19.70;;
68509;SDS011;55512;50.102;19.958;2022-11-20T05:23:29;42.40;;;18.30;;
68509;SDS011;55512;50.102;19.958;2022-11-20T05:25:57;39.70;;;16.30;;
68509;SDS011;55512;50.102;19.958;2022-11-20T05:28:24;39.80;;;17.60;;
68509;SDS011;55512;50.102;19.958;2022-11-20T05:30:50;44.80;;;19.80;;
68509;SDS011;55512;50.102;19.958;2022-11-20T05:33:16;52.90;;;20.40;;
68509;SDS011;55512;50.102;19.958;2022-11-20T05:35:43;45.10;;;20.60;;
68509;SDS011;55512;50.102;19.958;2022-11-20T05:38:08;41.00;;;18.90;;
68509;SDS011;55512;50.102;19.958;2022-11-20T05:40:34;39.70;;;18.70;;
68509;SDS011;55512;50.102;19.958;2022-11-20T05:43:00;38.90;;;18.10;;
68509;SDS011;55512;50.102;19.958;2022-11-20T05:45:26;40.80;;;18.00;;
68509;SDS011;55512;50.102;19.958;2022-11-20T05:47:52;42.10;;;17.80;;
68509;SDS011;55512;50.102;19.958;2022-11-20T05:50:17;36.40;;;16.20;;
68509;SDS011;55512;50.102;19.958;2022-11-20T05:52:43;40.10;;;17.20;;
68509;SDS011;55512;50.102;19.958;2022-11-20T05:55:08;36.50;;;15.40;;
68509;SDS011;55512;50.102;19.958;2022-11-20T05:57:34;43.50;;;18.60;;
68509;SDS011;55512;50.102;19.958;2022-11-20T06:00:00;38.10;;;15.80;;
68509;SDS011;55512;50.102;19.958;2022-11-20T06:02:25;51.40;;;20.20;;
68509;SDS011;55512;50.102;19.958;2022-11-20T06:04:51;47.00;;;20.50;;
68509;SDS011;55512;50.102;19.958;2022-11-20T06:07:16;47.10;;;19.00;;
68509;SDS011;55512;50.102;19.958;2022-11-20T06:09:42;35.40;;;14.60;;
68509;SDS011;55512;50.102;19.958;2022-11-20T06:12:07;36.90;;;16.60;;
68509;SDS011;55512;50.102;19.958;2022-11-20T06:14:33;47.40;;;19.40;;
68509;SDS011;55512;50.102;19.958;2022-11-20T06:16:59;44.10;;;19.80;;
68509;SDS011;55512;50.102;19.958;2022-11-20T06:19:25;42.10;;;19.90;;
68509;SDS011;55512;50.102;19.958;2022-11-20T06:21:51;44.00;;;19.30;;
68509;SDS011;55512;50.102;19.958;2022-11-20T06:24:16;45.70;;;18.10;;
68509;SDS011;55512;50.102;19.958;2022-11-20T06:26:42;41.10;;;18.60;;
68509;SDS011;55512;50.102;19.958;2022-11-20T06:29:08;38.50;;;18.00;;
68509;SDS011;55512;50.102;19.958;2022-11-20T06:31:34;39.90;;;18.00;;
68509;SDS011;55512;50.102;19.958;2022-11-20T06:34:03;42.70;;;16.30;;
68509;SDS011;55512;50.102;19.958;2022-11-20T06:36:31;36.30;;;15.80;;
68509;SDS011;55512;50.102;19.958;2022-11-20T06:38:57;42.60;;;17.20;;
68509;SDS011;55512;50.102;19.958;2022-11-20T06:41:22;42.40;;;16.90;;
68509;SDS011;55512;50.102;19.958;2022-11-20T06:43:49;44.40;;;19.40;;
68509;SDS011;55512;50.102;19.958;2022-11-20T06:46:16;46.50;;;18.10;;
68509;SDS011;55512;50.102;19.958;2022-11-20T06:48:43;44.80;;;17.80;;
68509;SDS011;55512;50.102;19.958;2022-11-20T06:51:09;49.20;;;19.10;;
68509;SDS011;55512;50.102;19.958;2022-11-20T06:53:35;41.00;;;16.20;;
68509;SDS011;55512;50.102;19.958;2022-11-20T06:56:01;45.40;;;18.90;;
68509;SDS011;55512;50.102;19.958;2022-11-20T06:58:28;48.60;;;19.90;;
68509;SDS011;55512;50.102;19.958;2022-11-20T07:01:09;47.40;;;19.90;;
68509;SDS011;55512;50.102;19.958;2022-11-20T07:03:37;39.60;;;15.90;;
68509;SDS011;55512;50.102;19.958;2022-11-20T07:06:04;34.20;;;16.40;;
68509;SDS011;55512;50.102;19.958;2022-11-20T07:08:30;47.30;;;20.30;;
68509;SDS011;55512;50.102;19.958;2022-11-20T07:10:58;49.20;;;21.70;;
68509;SDS011;55512;50.102;19.958;2022-11-20T07:13:28;50.40;;;21.30;;
68509;SDS011;55512;50.102;19.958;2022-11-20T07:15:55;43.50;;;21.00;;
68509;SDS011;55512;50.102;19.958;2022-11-20T07:18:25;48.20;;;21.60;;
68509;SDS011;55512;50.102;19.958;2022-11-20T07:20:50;50.60;;;20.30;;
68509;SDS011;55512;50.102;19.958;2022-11-20T07:23:16;42.40;;;19.50;;
68509;SDS011;55512;50.102;19.958;2022-11-20T07:25:41;44.20;;;18.90;;
68509;SDS011;55512;50.102;19.958;2022-11-20T07:28:07;41.60;;;18.50;;
68509;SDS011;55512;50.102;19.958;2022-11-20T07:30:33;41.50;;;18.10;;
68509;SDS011;55512;50.102;19.958;2022-11-20T07:32:58;40.70;;;18.70;;
68509;SDS011;55512;50.102;19.958;2022-11-20T07:35:24;45.00;;;17.70;;
68509;SDS011;55512;50.102;19.958;2022-11-20T07:37:50;46.70;;;20.60;;
68509;SDS011;55512;50.102;19.958;2022-11-20T07:40:16;38.40;;;15.80;;
68509;SDS011;55512;50.102;19.958;2022-11-20T07:42:53;52.00;;;20.20;;
68509;SDS011;55512;50.102;19.958;2022-11-20T07:45:21;54.90;;;23.00;;
68509;SDS011;55512;50.102;19.958;2022-11-20T07:47:48;53.10;;;21.30;;
68509;SDS011;55512;50.102;19.958;2022-11-20T07:50:14;57.00;;;23.20;;
68509;SDS011;55512;50.102;19.958;2022-11-20T07:52:42;49.30;;;19.20;;
68509;SDS011;55512;50.102;19.958;2022-11-20T07:55:09;36.10;;;14.70;;
68509;SDS011;55512;50.102;19.958;2022-11-20T07:57:35;41.90;;;20.30;;
68509;SDS011;55512;50.102;19.958;2022-11-20T08:00:01;54.20;;;24.20;;
68509;SDS011;55512;50.102;19.958;2022-11-20T08:02:28;48.50;;;23.90;;
68509;SDS011;55512;50.102;19.958;2022-11-20T08:04:53;52.90;;;24.50;;
68509;SDS011;55512;50.102;19.958;2022-11-20T08:07:19;50.80;;;23.70;;
68509;SDS011;55512;50.102;19.958;2022-11-20T08:09:44;49.80;;;21.80;;
68509;SDS011;55512;50.102;19.958;2022-11-20T08:12:18;48.40;;;22.70;;
68509;SDS011;55512;50.102;19.958;2022-11-20T08:15:04;43.50;;;20.00;;
68509;SDS011;55512;50.102;19.958;2022-11-20T08:17:31;46.30;;;20.60;;
68509;SDS011;55512;50.102;19.958;2022-11-20T08:19:56;39.20;;;18.90;;
68509;SDS011;55512;50.102;19.958;2022-11-20T08:22:22;44.90;;;20.50;;
68509;SDS011;55512;50.102;19.958;2022-11-20T08:24:47;55.10;;;23.20;;
68509;SDS011;55512;50.102;19.958;2022-11-20T08:27:13;31.20;;;16.60;;
68509;SDS011;55512;50.102;19.958;2022-11-20T08:29:39;49.10;;;19.70;;
68509;SDS011;55512;50.102;19.958;2022-11-20T08:32:04;67.70;;;25.30;;
68509;SDS011;55512;50.102;19.958;2022-11-20T08:34:30;66.50;;;24.30;;
68509;SDS011;55512;50.102;19.958;2022-11-20T08:36:55;61.50;;;26.20;;
68509;SDS011;55512;50.102;19.958;2022-11-20T08:39:20;52.10;;;21.20;;
68509;SDS011;55512;50.102;19.958;2022-11-20T08:41:46;52.60;;;23.40;;
68509;SDS011;55512;50.102;19.958;2022-11-20T08:44:11;38.80;;;19.00;;
68509;SDS011;55512;50.102;19.958;2022-11-20T08:46:39;66.20;;;25.10;;
68509;SDS011;55512;50.102;19.958;2022-11-20T08:49:08;66.50;;;28.30;;
68509;SDS011;55512;50.102;19.958;2022-11-20T08:51:34;62.00;;;26.50;;
68509;SDS011;55512;50.102;19.958;2022-11-20T08:54:01;57.20;;;24.00;;
68509;SDS011;55512;50.102;19.958;2022-11-20T08:56:27;61.90;;;22.00;;
68509;SDS011;55512;50.102;19.958;2022-11-20T08:58:53;57.80;;;22.10;;
68509;SDS011;55512;50.102;19.958;2022-11-20T09:01:20;51.50;;;21.50;;
68509;SDS011;55512;50.102;19.958;2022-11-20T09:03:46;29.90;;;11.80;;
68509;SDS011;55512;50.102;19.958;2022-11-20T09:06:12;31.40;;;13.30;;
68509;SDS011;55512;50.102;19.958;2022-11-20T09:08:38;40.60;;;16.70;;
68509;SDS011;55512;50.102;19.958;2022-11-20T09:11:05;51.30;;;20.90;;
68509;SDS011;55512;50.102;19.958;2022-11-20T09:13:32;59.50;;;24.00;;
68509;SDS011;55512;50.102;19.958;2022-11-20T09:16:04;53.30;;;21.00;;
68509;SDS011;55512;50.102;19.958;2022-11-20T09:18:32;45.20;;;18.70;;
68509;SDS011;55512;50.102;19.958;2022-11-20T09:21:02;52.70;;;24.20;;
68509;SDS011;55512;50.102;19.958;2022-11-20T09:23:34;61.70;;;26.20;;
68509;SDS011;55512;50.102;19.958;2022-11-20T09:26:11;68.30;;;25.80;;
68509;SDS011;55512;50.102;19.958;2022-11-20T09:28:39;54.60;;;24.40;;
68509;SDS011;55512;50.102;19.958;2022-11-20T09:31:09;60.10;;;24.90;;
68509;SDS011;55512;50.102;19.958;2022-11-20T09:33:44;51.50;;;20.90;;
68509;SDS011;55512;50.102;19.958;2022-11-20T09:36:10;48.00;;;18.80;;
68509;SDS011;55512;50.102;19.958;2022-11-20T09:38:35;47.50;;;20.20;;
68509;SDS011;55512;50.102;19.958;2022-11-20T09:41:06;57.10;;;21.30;;
68509;SDS011;55512;50.102;19.958;2022-11-20T09:46:53;58.20;;;24.00;;
68509;SDS011;55512;50.102;19.958;2022-11-20T09:49:32;51.80;;;20.00;;
68509;SDS011;55512;50.102;19.958;2022-11-20T09:55:12;33.20;;;14.40;;
68509;SDS011;55512;50.102;19.958;2022-11-20T09:57:43;54.20;;;23.80;;
68509;SDS011;55512;50.102;19.958;2022-11-20T10:00:14;47.40;;;23.90;;
68509;SDS011;55512;50.102;19.958;2022-11-20T10:05:22;56.00;;;25.80;;
68509;SDS011;55512;50.102;19.958;2022-11-20T10:07:58;61.00;;;26.50;;
68509;SDS011;55512;50.102;19.958;2022-11-20T10:10:31;52.40;;;22.90;;
68509;SDS011;55512;50.102;19.958;2022-11-20T10:24:53;58.00;;;23.00;;
68509;SDS011;55512;50.102;19.958;2022-11-20T10:31:10;52.10;;;20.90;;
68509;SDS011;55512;50.102;19.958;2022-11-20T10:33:41;58.90;;;24.10;;
68509;SDS011;55512;50.102;19.958;2022-11-20T10:36:21;56.20;;;21.60;;
68509;SDS011;55512;50.102;19.958;2022-11-20T10:39:05;46.40;;;19.40;;
68509;SDS011;55512;50.102;19.958;2022-11-20T10:41:41;50.80;;;20.80;;
68509;SDS011;55512;50.102;19.958;2022-11-20T10:44:22;41.70;;;23.10;;
68509;SDS011;55512;50.102;19.958;2022-11-20T10:47:14;60.60;;;24.80;;
68509;SDS011;55512;50.102;19.958;2022-11-20T10:49:46;55.00;;;26.00;;
68509;SDS011;55512;50.102;19.958;2022-11-20T10:57:34;49.10;;;23.10;;
68509;SDS011;55512;50.102;19.958;2022-11-20T11:00:03;59.10;;;25.10;;
68509;SDS011;55512;50.102;19.958;2022-11-20T11:02:54;48.00;;;23.40;;
68509;SDS011;55512;50.102;19.958;2022-11-20T11:08:15;32.90;;;14.80;;
68509;SDS011;55512;50.102;19.958;2022-11-20T11:10:56;45.00;;;23.10;;
68509;SDS011;55512;50.102;19.958;2022-11-20T11:13:27;39.30;;;17.30;;
68509;SDS011;55512;50.102;19.958;2022-11-20T11:15:54;55.60;;;23.00;;
68509;SDS011;55512;50.102;19.958;2022-11-20T11:18:25;52.40;;;21.10;;
68509;SDS011;55512;50.102;19.958;2022-11-20T11:20:56;43.90;;;17.90;;
68509;SDS011;55512;50.102;19.958;2022-11-20T11:26:01;53.80;;;26.20;;
68509;SDS011;55512;50.102;19.958;2022-11-20T11:28:28;52.30;;;23.60;;
68509;SDS011;55512;50.102;19.958;2022-11-20T11:30:55;57.60;;;25.90;;
68509;SDS011;55512;50.102;19.958;2022-11-20T11:33:25;49.20;;;24.00;;
68509;SDS011;55512;50.102;19.958;2022-11-20T11:35:57;48.90;;;23.10;;
68509;SDS011;55512;50.102;19.958;2022-11-20T11:41:02;49.00;;;23.10;;
68509;SDS011;55512;50.102;19.958;2022-11-20T11:43:32;46.20;;;21.40;;
68509;SDS011;55512;50.102;19.958;2022-11-20T11:46:37;49.10;;;20.90;;
68509;SDS011;55512;50.102;19.958;2022-11-20T11:54:47;44.30;;;22.60;;
68509;SDS011;55512;50.102;19.958;2022-11-20T11:57:39;41.70;;;20.40;;
68509;SDS011;55512;50.102;19.958;2022-11-20T12:00:16;47.80;;;21.20;;
68509;SDS011;55512;50.102;19.958;2022-11-20T12:07:47;41.60;;;20.30;;
68509;SDS011;55512;50.102;19.958;2022-11-20T12:16:14;46.80;;;20.90;;
68509;SDS011;55512;50.102;19.958;2022-11-20T12:18:46;45.10;;;21.00;;
68509;SDS011;55512;50.102;19.958;2022-11-20T12:21:21;45.50;;;19.50;;
68509;SDS011;55512;50.102;19.958;2022-11-20T12:27:22;41.10;;;19.10;;
68509;SDS011;55512;50.102;19.958;2022-11-20T12:32:52;41.70;;;19.40;;
68509;SDS011;55512;50.102;19.958;2022-11-20T12:39:07;44.20;;;19.30;;
68509;SDS011;55512;50.102;19.958;2022-11-20T12:41:55;39.60;;;18.50;;
68509;SDS011;55512;50.102;19.958;2022-11-20T12:59:38;43.00;;;20.80;;
68509;SDS011;55512;50.102;19.958;2022-11-20T13:05:47;45.70;;;20.00;;
68509;SDS011;55512;50.102;19.958;2022-11-20T13:08:23;39.00;;;17.30;;
68509;SDS011;55512;50.102;19.958;2022-11-20T13:11:01;47.60;;;22.80;;
68509;SDS011;55512;50.102;19.958;2022-11-20T13:16:13;41.40;;;19.40;;
68509;SDS011;55512;50.102;19.958;2022-11-20T13:18:45;46.50;;;20.70;;
68509;SDS011;55512;50.102;19.958;2022-11-20T13:24:28;47.70;;;22.00;;
68509;SDS011;55512;50.102;19.958;2022-11-20T13:29:27;48.00;;;19.60;;
68509;SDS011;55512;50.102;19.958;2022-11-20T13:32:02;41.50;;;16.50;;
68509;SDS011;55512;50.102;19.958;2022-11-20T13:34:29;41.80;;;21.10;;
68509;SDS011;55512;50.102;19.958;2022-11-20T13:36:57;51.30;;;24.20;;
68509;SDS011;55512;50.102;19.958;2022-11-20T13:39:35;53.20;;;23.30;;
68509;SDS011;55512;50.102;19.958;2022-11-20T13:44:42;46.70;;;21.60;;
68509;SDS011;55512;50.102;19.958;2022-11-20T13:49:50;38.20;;;19.50;;
68509;SDS011;55512;50.102;19.958;2022-11-20T13:52:43;43.30;;;20.60;;
68509;SDS011;55512;50.102;19.958;2022-11-20T13:58:02;48.90;;;22.60;;
68509;SDS011;55512;50.102;19.958;2022-11-20T14:00:50;43.20;;;21.80;;
68509;SDS011;55512;50.102;19.958;2022-11-20T14:03:25;42.10;;;19.60;;
68509;SDS011;55512;50.102;19.958;2022-11-20T14:05:58;48.50;;;22.80;;
68509;SDS011;55512;50.102;19.958;2022-11-20T14:08:36;46.10;;;21.90;;
68509;SDS011;55512;50.102;19.958;2022-11-20T14:11:12;44.40;;;22.30;;
68509;SDS011;55512;50.102;19.958;2022-11-20T14:14:36;42.40;;;22.70;;
68509;SDS011;55512;50.102;19.958;2022-11-20T14:16:41;50.10;;;23.20;;
68509;SDS011;55512;50.102;19.958;2022-11-20T14:21:54;59.20;;;27.50;;
68509;SDS011;55512;50.102;19.958;2022-11-20T14:24:31;64.50;;;30.10;;
68509;SDS011;55512;50.102;19.958;2022-11-20T14:26:57;57.80;;;27.80;;
68509;SDS011;55512;50.102;19.958;2022-11-20T14:29:43;72.90;;;33.00;;
68509;SDS011;55512;50.102;19.958;2022-11-20T14:32:11;56.00;;;25.80;;
68509;SDS011;55512;50.102;19.958;2022-11-20T14:34:41;57.30;;;27.50;;
68509;SDS011;55512;50.102;19.958;2022-11-20T14:37:12;57.70;;;26.60;;
68509;SDS011;55512;50.102;19.958;2022-11-20T14:39:48;54.50;;;26.30;;
68509;SDS011;55512;50.102;19.958;2022-11-20T14:42:25;59.80;;;28.40;;
68509;SDS011;55512;50.102;19.958;2022-11-20T14:44:57;57.80;;;26.30;;
68509;SDS011;55512;50.102;19.958;2022-11-20T14:47:26;67.40;;;28.80;;
68509;SDS011;55512;50.102;19.958;2022-11-20T14:49:55;57.30;;;29.00;;
68509;SDS011;55512;50.102;19.958;2022-11-20T14:52:23;45.30;;;24.50;;
68509;SDS011;55512;50.102;19.958;2022-11-20T14:54:56;48.80;;;23.50;;
68509;SDS011;55512;50.102;19.958;2022-11-20T14:57:30;50.10;;;23.30;;
68509;SDS011;55512;50.102;19.958;2022-11-20T15:00:28;52.30;;;21.60;;
68509;SDS011;55512;50.102;19.958;2022-11-20T15:02:54;52.80;;;20.80;;
68509;SDS011;55512;50.102;19.958;2022-11-20T15:05:23;39.10;;;18.00;;
68509;SDS011;55512;50.102;19.958;2022-11-20T15:08:04;56.50;;;27.30;;
68509;SDS011;55512;50.102;19.958;2022-11-20T15:10:32;56.30;;;26.30;;
68509;SDS011;55512;50.102;19.958;2022-11-20T15:13:15;55.90;;;26.00;;
68509;SDS011;55512;50.102;19.958;2022-11-20T15:15:50;54.50;;;25.30;;
68509;SDS011;55512;50.102;19.958;2022-11-20T15:18:22;55.40;;;25.60;;
68509;SDS011;55512;50.102;19.958;2022-11-20T15:20:51;56.40;;;24.90;;
68509;SDS011;55512;50.102;19.958;2022-11-20T15:23:19;54.90;;;23.30;;
68509;SDS011;55512;50.102;19.958;2022-11-20T15:25:46;55.10;;;25.10;;
68509;SDS011;55512;50.102;19.958;2022-11-20T15:28:21;56.20;;;26.70;;
68509;SDS011;55512;50.102;19.958;2022-11-20T15:30:50;56.60;;;25.80;;
68509;SDS011;55512;50.102;19.958;2022-11-20T15:33:16;58.40;;;24.60;;
68509;SDS011;55512;50.102;19.958;2022-11-20T15:35:43;59.70;;;28.00;;
68509;SDS011;55512;50.102;19.958;2022-11-20T15:38:09;59.40;;;26.00;;
68509;SDS011;55512;50.102;19.958;2022-11-20T15:40:35;61.40;;;24.50;;
68509;SDS011;55512;50.102;19.958;2022-11-20T15:43:00;54.40;;;25.50;;
68509;SDS011;55512;50.102;19.958;2022-11-20T15:45:55;50.70;;;21.90;;
68509;SDS011;55512;50.102;19.958;2022-11-20T15:48:27;62.60;;;24.90;;
68509;SDS011;55512;50.102;19.958;2022-11-20T15:53:36;62.10;;;30.20;;
68509;SDS011;55512;50.102;19.958;2022-11-20T15:56:03;66.00;;;28.40;;
68509;SDS011;55512;50.102;19.958;2022-11-20T15:58:29;66.30;;;28.50;;
68509;SDS011;55512;50.102;19.958;2022-11-20T16:00:55;70.80;;;31.90;;
68509;SDS011;55512;50.102;19.958;2022-11-20T16:03:21;74.70;;;31.90;;
68509;SDS011;55512;50.102;19.958;2022-11-20T16:05:48;59.10;;;25.30;;
68509;SDS011;55512;50.102;19.958;2022-11-20T16:08:14;66.20;;;29.10;;
68509;SDS011;55512;50.102;19.958;2022-11-20T16:10:40;74.80;;;30.40;;
68509;SDS011;55512;50.102;19.958;2022-11-20T16:13:14;71.60;;;27.20;;
68509;SDS011;55512;50.102;19.958;2022-11-20T16:16:07;70.80;;;31.00;;